Lawson Army Air Field (Fort Benning)
KLSF : rendu visible

Aérodrome :











RETROUVEZ-NOUS SUR...

 
LOGIN :

S'inscrire | Disclaimer

   EN    FR    IT 

 









Légende :    VFR   VFR Marginal   IFR   IFR Intensif   IFR Très Intensif
Visi : 
Plafond : 
>= 8 km
>= 3000ft
5 à 8 km
1000 à 3000 ft
1500m à 5 km
500 à 1000 ft
800 à 1500m
200 à 500 ft
< 800m
< 200 ft
Symboles :   Orages  Brouillard  Fortes neiges  Fortes précipitations  Vent > 20 kt







- Altitude de l'aérodrome : 232 ft


KLSF - Lawson Army Air Field (Fort Benning)

DERNIER METAR :
  • 241056Z AUTO 00000KT 9SM SCT190 22/22 A3000 RMK AO2 SLP162 T02200220 $

METARs EXPIRÉS :
  • 240956Z AUTO 00000KT 10SM CLR 23/23 A2997 RMK AO2 SLP152 T02270227 $
  • 240856Z AUTO 28003KT 10SM CLR 23/23 A2997 RMK AO2 SLP151 T02260226 56006 $

TAF TAF KLSF
Valide du 24 à 01h jusqu'au 25 à 07h UTC


240100Z 2401/2507 VRB06KT 6000 -TSRA BR BKN040CB QNH2991INS
BECMG 2402/2403 VRB06KT 9999 NSW SCT030 BKN040 QNH2994INS
BECMG 2408/2409 VRB06KT 6000 BR BKN010 QNH2991INS
TEMPO 2411/2413 1600 BR BKN006
BECMG 2414/2415 VRB06KT 9999 NSW SCT060 QNH2990INS
TEMPO 2419/2500 VRB10G25KT 6000 TSRA BKN040CB
BECMG 2502/2503 VRB06KT 9999 BKN020 QNH2987INS TX34/2421Z TN25/2409Z LAST NO AMDS AFT 2404 NEXT 2609
Pas de NOTAMs connus pour ce terrain.



MET'MAP, la Météo Aéronautique d'un coup d'oeil ! - Copyright ORBIFLY Décembre 2007 - Disclaimer

ORBIFLY MET'MAP TEAM :

Programmation & Développement : Alexandra Zaïnal
Conception & Développement : Baudouin d'Aumeries
Co-Programmation & Développement : Marc-Olivier Méhu
Soutien technique & logistique : Manuel Goepfert

Contact : metmap@orbifly.com




SOURCES & CREDITS :

   NOAA       Earth
Advisory